createdAt,value
2022-11-23T00:01:42.444Z,73.43
2022-11-23T00:04:14.392Z,71.03
2022-11-23T00:06:43.698Z,64.13
2022-11-23T00:09:13.861Z,63.57
2022-11-23T00:11:42.757Z,66.90
2022-11-23T00:14:11.293Z,65.23
2022-11-23T00:16:40.219Z,62.33
2022-11-23T00:19:10.287Z,71.80
2022-11-23T00:21:39.295Z,66.80
2022-11-23T00:24:08.180Z,71.83
2022-11-23T00:26:38.350Z,65.53
2022-11-23T00:29:06.913Z,72.20
2022-11-23T00:31:35.754Z,67.60
2022-11-23T00:34:04.369Z,67.03
2022-11-23T00:36:33.263Z,64.80
2022-11-23T00:39:02.119Z,67.77
2022-11-23T00:41:30.974Z,71.50
2022-11-23T00:44:01.186Z,67.90
2022-11-23T00:46:30.043Z,72.20
2022-11-23T00:49:00.558Z,69.70
2022-11-23T00:51:32.241Z,65.70
2022-11-23T00:54:01.834Z,66.93
2022-11-23T00:56:31.703Z,72.70
2022-11-23T00:59:04.675Z,70.60
2022-11-23T01:01:37.950Z,66.07
2022-11-23T01:04:09.056Z,64.07
2022-11-23T01:06:40.368Z,64.83
2022-11-23T01:09:14.392Z,61.67
2022-11-23T01:11:43.422Z,64.73
2022-11-23T01:14:14.053Z,67.47
2022-11-23T01:16:43.530Z,71.33
2022-11-23T01:19:15.583Z,67.53
2022-11-23T01:21:45.405Z,63.33
2022-11-23T01:24:18.439Z,62.23
2022-11-23T01:26:52.442Z,55.87
2022-11-23T01:29:23.891Z,54.97
2022-11-23T01:31:52.712Z,60.23
2022-11-23T01:34:21.340Z,69.97
2022-11-23T01:36:50.168Z,56.80
2022-11-23T01:39:18.756Z,54.07
2022-11-23T01:41:47.998Z,59.10
2022-11-23T01:44:30.314Z,59.40
2022-11-23T01:47:01.951Z,52.63
2022-11-23T01:49:37.671Z,58.97
2022-11-23T01:52:13.715Z,60.83
2022-11-23T01:54:48.253Z,54.30
2022-11-23T01:57:23.634Z,56.90
2022-11-23T01:59:56.366Z,55.97
2022-11-23T02:02:29.404Z,58.10
2022-11-23T02:05:01.760Z,60.50
2022-11-23T02:07:32.359Z,58.43
2022-11-23T02:10:01.395Z,57.07
2022-11-23T02:12:30.253Z,55.10
2022-11-23T02:15:00.375Z,47.77
2022-11-23T02:17:29.222Z,55.83
2022-11-23T02:20:08.825Z,47.70
2022-11-23T02:22:51.898Z,52.77
2022-11-23T02:25:34.688Z,50.43
2022-11-23T02:28:05.587Z,52.93
2022-11-23T02:30:37.455Z,56.30
2022-11-23T02:33:07.727Z,56.00
2022-11-23T02:35:36.597Z,50.43
2022-11-23T02:38:07.739Z,59.77
2022-11-23T02:40:37.974Z,57.07
2022-11-23T02:43:08.288Z,56.30
2022-11-23T02:45:45.004Z,51.33
2022-11-23T02:48:13.871Z,58.80
2022-11-23T02:53:28.829Z,57.17
2022-11-23T02:55:57.415Z,55.50
2022-11-23T02:58:28.152Z,61.47
2022-11-23T03:00:56.806Z,58.37
2022-11-23T03:03:25.751Z,58.77
2022-11-23T03:05:54.303Z,52.17
2022-11-23T03:08:23.130Z,51.03
2022-11-23T03:10:51.727Z,51.87
2022-11-23T03:13:21.711Z,49.63
2022-11-23T03:15:51.875Z,47.80
2022-11-23T03:18:21.737Z,49.23
2022-11-23T03:20:50.468Z,50.33
2022-11-23T03:23:19.509Z,51.70
2022-11-23T03:25:57.218Z,44.08
2022-11-23T03:28:27.645Z,43.90
2022-11-23T03:30:59.595Z,46.17
2022-11-23T03:33:28.614Z,43.40
2022-11-23T03:35:58.048Z,43.20
2022-11-23T03:38:38.251Z,46.00
2022-11-23T03:41:15.550Z,43.53
2022-11-23T03:43:53.178Z,39.23
2022-11-23T03:46:23.185Z,45.30
2022-11-23T03:48:52.099Z,39.00
2022-11-23T03:51:20.822Z,44.60
2022-11-23T03:53:49.851Z,43.20
2022-11-23T03:56:20.089Z,43.97
2022-11-23T03:58:48.981Z,40.90
2022-11-23T04:01:17.901Z,40.70
2022-11-23T04:03:51.385Z,40.27
2022-11-23T04:06:25.407Z,43.93
2022-11-23T04:09:02.494Z,48.23
2022-11-23T04:11:47.176Z,40.90
2022-11-23T04:14:16.139Z,41.30
2022-11-23T04:16:45.270Z,44.90
2022-11-23T04:19:15.524Z,41.97
2022-11-23T04:21:44.687Z,41.53
2022-11-23T04:24:13.703Z,42.93
2022-11-23T04:26:43.968Z,39.93
2022-11-23T04:29:13.989Z,38.50
2022-11-23T04:31:47.885Z,40.37
2022-11-23T04:34:21.627Z,42.03
2022-11-23T04:36:52.016Z,40.63
2022-11-23T04:39:26.271Z,43.20
2022-11-23T04:42:18.284Z,38.63
2022-11-23T04:44:57.433Z,41.53
2022-11-23T04:47:27.323Z,40.40
2022-11-23T04:50:01.303Z,35.60
2022-11-23T04:52:31.689Z,41.40
2022-11-23T04:55:00.831Z,35.10
2022-11-23T04:57:32.363Z,34.27
2022-11-23T05:00:01.371Z,33.57
2022-11-23T05:02:31.584Z,33.73
2022-11-23T05:05:18.509Z,37.03
2022-11-23T05:07:47.241Z,36.50
2022-11-23T05:10:18.761Z,36.00
2022-11-23T05:12:48.769Z,33.97
2022-11-23T05:15:18.596Z,35.40
2022-11-23T05:17:47.511Z,33.13
2022-11-23T05:20:25.784Z,32.07
2022-11-23T05:22:54.482Z,34.77
2022-11-23T05:25:26.506Z,29.80
2022-11-23T05:28:11.371Z,32.17
2022-11-23T05:30:52.449Z,30.73
2022-11-23T05:33:21.091Z,34.23
2022-11-23T05:35:51.584Z,32.03
2022-11-23T05:38:29.337Z,27.77
2022-11-23T05:41:01.795Z,31.23
2022-11-23T05:43:30.982Z,32.17
2022-11-23T05:46:01.131Z,30.77
2022-11-23T05:48:31.218Z,31.90
2022-11-23T05:51:05.206Z,30.90
2022-11-23T05:53:37.676Z,33.83
2022-11-23T05:56:16.500Z,30.63
2022-11-23T05:59:08.076Z,31.10
2022-11-23T06:01:39.305Z,31.40
2022-11-23T06:04:10.233Z,31.23
2022-11-23T06:06:45.132Z,29.83
2022-11-23T06:09:13.935Z,31.93
2022-11-23T06:11:48.288Z,36.13
2022-11-23T06:14:20.526Z,36.50
2022-11-23T06:16:50.163Z,39.47
2022-11-23T06:19:34.386Z,31.87
2022-11-23T06:22:05.487Z,31.53
2022-11-23T06:24:38.961Z,35.03
2022-11-23T06:27:35.591Z,32.47
2022-11-23T06:30:10.311Z,32.37
2022-11-23T06:32:40.128Z,29.83
2022-11-23T06:35:09.292Z,31.60
2022-11-23T06:37:43.284Z,30.93
2022-11-23T06:40:13.734Z,30.00
2022-11-23T06:42:43.970Z,27.77
2022-11-23T06:45:21.069Z,31.07
2022-11-23T06:47:56.421Z,33.37
2022-11-23T06:50:25.086Z,33.10
2022-11-23T06:52:59.655Z,31.53
2022-11-23T06:55:44.060Z,30.47
2022-11-23T06:58:15.764Z,33.87
2022-11-23T07:00:45.344Z,31.03
2022-11-23T07:03:22.409Z,30.63
2022-11-23T07:05:56.263Z,30.30
2022-11-23T07:08:32.966Z,32.47
2022-11-23T07:11:09.102Z,31.23
2022-11-23T07:13:38.203Z,29.37
2022-11-23T07:16:07.897Z,36.00
2022-11-23T07:18:36.868Z,30.83
2022-11-23T07:21:05.888Z,32.73
2022-11-23T07:23:40.972Z,31.63
2022-11-23T07:26:10.965Z,31.13
2022-11-23T07:28:40.735Z,28.67
2022-11-23T07:31:09.643Z,28.33
2022-11-23T07:33:38.642Z,27.50
2022-11-23T07:36:08.467Z,31.03
2022-11-23T07:38:40.898Z,30.80
2022-11-23T07:41:09.990Z,32.10
2022-11-23T07:43:56.103Z,28.33
2022-11-23T07:46:24.692Z,32.37
2022-11-23T07:48:54.504Z,27.63
2022-11-23T07:51:23.107Z,29.30
2022-11-23T07:53:53.348Z,27.97
2022-11-23T07:56:21.986Z,26.70
2022-11-23T07:58:50.964Z,25.63
2022-11-23T08:01:21.172Z,25.10
2022-11-23T08:03:50.439Z,21.20
2022-11-23T08:06:19.187Z,27.17
2022-11-23T08:08:48.626Z,24.93
2022-11-23T08:11:19.644Z,23.00
2022-11-23T08:13:48.639Z,23.40
2022-11-23T08:16:17.264Z,23.93
2022-11-23T08:18:46.248Z,24.77
2022-11-23T08:21:14.806Z,27.13
2022-11-23T08:23:43.659Z,28.60
2022-11-23T08:26:14.031Z,27.07
2022-11-23T08:28:44.800Z,25.67
2022-11-23T08:31:14.905Z,23.90
2022-11-23T08:33:44.504Z,27.23
2022-11-23T08:36:13.279Z,24.67
2022-11-23T08:38:42.343Z,23.87
2022-11-23T08:41:10.950Z,27.53
2022-11-23T08:43:39.980Z,26.57
2022-11-23T08:46:11.380Z,25.07
2022-11-23T08:48:40.692Z,24.50
2022-11-23T08:51:09.836Z,25.07
2022-11-23T08:53:38.913Z,25.43
2022-11-23T08:56:09.178Z,24.27
2022-11-23T08:58:38.054Z,24.07
2022-11-23T09:01:11.732Z,23.40
2022-11-23T09:03:41.183Z,23.47
2022-11-23T09:06:11.082Z,23.37
2022-11-23T09:08:40.225Z,24.67
2022-11-23T09:11:13.216Z,24.67
2022-11-23T09:13:42.544Z,21.33
2022-11-23T09:16:12.556Z,27.17
2022-11-23T09:18:41.495Z,23.60
2022-11-23T09:21:11.846Z,24.03
2022-11-23T09:23:40.686Z,22.90
2022-11-23T09:26:10.548Z,23.70
2022-11-23T09:28:44.484Z,23.20
2022-11-23T09:31:14.970Z,23.63
2022-11-23T09:33:43.972Z,25.53
2022-11-23T09:36:12.558Z,25.47
2022-11-23T09:38:57.655Z,27.03
2022-11-23T09:42:05.648Z,29.60
2022-11-23T09:44:54.206Z,24.80
2022-11-23T09:47:47.273Z,26.30
2022-11-23T09:50:25.174Z,25.83
2022-11-23T09:52:55.174Z,30.40
2022-11-23T09:55:37.848Z,28.33
2022-11-23T09:58:08.476Z,26.60
2022-11-23T10:00:44.719Z,23.93
2022-11-23T10:03:18.568Z,24.20
2022-11-23T10:06:02.112Z,24.47
2022-11-23T10:08:44.258Z,24.07
2022-11-23T10:11:51.035Z,25.33
2022-11-23T10:14:49.515Z,22.47
2022-11-23T10:17:33.080Z,23.27
2022-11-23T10:20:29.221Z,24.27
2022-11-23T10:23:00.557Z,22.00
2022-11-23T10:25:40.406Z,25.43
2022-11-23T10:28:17.224Z,25.23
2022-11-23T10:30:52.661Z,22.33
2022-11-23T10:33:31.853Z,23.17
2022-11-23T10:36:01.935Z,20.90
2022-11-23T10:38:30.974Z,21.47
2022-11-23T10:41:07.747Z,20.47
2022-11-23T10:43:43.863Z,22.93
2022-11-23T10:46:32.104Z,20.60
2022-11-23T10:49:17.501Z,20.90
2022-11-23T10:51:57.516Z,21.33
2022-11-23T10:54:32.149Z,20.43
2022-11-23T10:57:04.644Z,19.93
2022-11-23T10:59:37.509Z,21.73
2022-11-23T11:02:22.311Z,20.80
2022-11-23T11:05:12.714Z,20.50
2022-11-23T11:07:42.927Z,18.20
2022-11-23T11:10:42.081Z,22.70
2022-11-23T11:13:26.674Z,22.60
2022-11-23T11:15:58.524Z,22.37
2022-11-23T11:18:31.205Z,21.77
2022-11-23T11:21:05.880Z,21.13
2022-11-23T11:23:41.634Z,23.27
2022-11-23T11:26:23.522Z,22.07
2022-11-23T11:28:54.607Z,24.93
2022-11-23T11:31:52.990Z,21.70
2022-11-23T11:34:27.834Z,21.30
2022-11-23T11:37:07.160Z,19.57
2022-11-23T11:39:46.056Z,21.87
2022-11-23T11:42:24.040Z,23.97
2022-11-23T11:44:58.065Z,26.90
2022-11-23T11:47:33.707Z,27.80
2022-11-23T11:50:30.137Z,25.93
2022-11-23T11:53:07.316Z,26.20
2022-11-23T11:55:51.870Z,26.17
2022-11-23T11:58:25.160Z,28.83
2022-11-23T12:01:08.393Z,25.23
2022-11-23T12:03:46.196Z,27.53
2022-11-23T12:06:26.859Z,27.93
2022-11-23T12:09:08.116Z,27.60
2022-11-23T12:11:38.261Z,26.13
2022-11-23T12:14:14.613Z,29.57
2022-11-23T12:17:16.944Z,26.97
2022-11-23T12:19:57.140Z,28.67
2022-11-23T12:22:52.449Z,28.50
2022-11-23T12:25:34.567Z,27.30
2022-11-23T12:28:52.238Z,29.33
2022-11-23T12:31:44.418Z,28.07
2022-11-23T12:34:57.276Z,28.47
2022-11-23T12:37:47.677Z,29.07
2022-11-23T12:40:34.428Z,29.53
2022-11-23T12:58:22.534Z,29.83
2022-11-23T13:00:59.307Z,34.23
2022-11-23T13:04:09.965Z,33.23
2022-11-23T13:07:28.977Z,30.17
2022-11-23T13:10:40.837Z,28.73
2022-11-23T13:13:50.811Z,35.73
2022-11-23T13:16:38.387Z,45.37
2022-11-23T13:19:33.562Z,41.27
2022-11-23T13:22:06.525Z,37.47
2022-11-23T13:24:58.940Z,40.13
2022-11-23T13:27:42.281Z,45.87
2022-11-23T13:30:35.645Z,42.93
2022-11-23T13:33:37.700Z,35.40
2022-11-23T13:36:16.828Z,36.73
2022-11-23T13:38:48.343Z,36.00
2022-11-23T13:42:02.441Z,34.00
2022-11-23T13:44:33.474Z,39.73
2022-11-23T13:47:20.214Z,41.17
2022-11-23T13:49:51.211Z,51.07
2022-11-23T13:52:50.447Z,54.20
2022-11-23T13:55:32.632Z,52.40
2022-11-23T13:58:56.793Z,51.50
2022-11-23T14:02:04.101Z,62.67
2022-11-23T14:04:37.213Z,71.67
2022-11-23T14:07:16.260Z,58.03
2022-11-23T14:09:53.452Z,43.77
2022-11-23T14:12:35.614Z,36.60
2022-11-23T14:15:16.187Z,40.00
2022-11-23T14:18:25.342Z,41.53
2022-11-23T14:21:13.295Z,65.20
2022-11-23T14:24:38.921Z,48.70
2022-11-23T14:27:46.760Z,43.60
2022-11-23T14:30:35.643Z,47.50
2022-11-23T14:33:24.245Z,42.90
2022-11-23T14:36:07.830Z,51.27
2022-11-23T14:39:03.391Z,47.63
2022-11-23T14:41:36.326Z,48.60
2022-11-23T14:44:11.791Z,45.73
2022-11-23T14:47:01.548Z,50.27
2022-11-23T14:49:31.032Z,48.27
2022-11-23T14:52:02.796Z,42.83
2022-11-23T14:54:33.210Z,44.17
2022-11-23T14:57:05.841Z,46.03
2022-11-23T14:59:40.380Z,56.20
2022-11-23T15:02:20.116Z,50.77
2022-11-23T15:05:07.556Z,45.70
2022-11-23T15:07:56.005Z,45.97
2022-11-23T15:10:39.240Z,55.60
2022-11-23T15:13:21.912Z,53.83
2022-11-23T15:15:55.129Z,48.30
2022-11-23T15:18:34.617Z,46.57
2022-11-23T15:21:09.000Z,44.60
2022-11-23T15:23:43.735Z,49.07
2022-11-23T15:26:35.026Z,41.07
2022-11-23T15:29:06.084Z,45.30
2022-11-23T15:31:37.628Z,42.03
2022-11-23T15:34:15.043Z,43.27
2022-11-23T15:36:46.536Z,43.37
2022-11-23T15:39:20.422Z,43.33
2022-11-23T15:41:50.640Z,42.40
2022-11-23T15:44:26.896Z,42.67
2022-11-23T15:47:00.940Z,42.03
2022-11-23T15:49:30.393Z,42.10
2022-11-23T15:52:02.467Z,45.30
2022-11-23T15:54:38.636Z,44.97
2022-11-23T15:57:15.335Z,39.17
2022-11-23T15:59:48.134Z,45.77
2022-11-23T16:02:23.370Z,48.60
2022-11-23T16:05:11.214Z,55.53
2022-11-23T16:07:53.741Z,56.10
2022-11-23T16:10:26.262Z,57.77
2022-11-23T16:12:57.818Z,58.37
2022-11-23T16:15:44.360Z,52.77
2022-11-23T16:18:24.846Z,49.00
2022-11-23T16:20:57.966Z,46.67
2022-11-23T16:23:38.576Z,50.70
2022-11-23T16:26:08.878Z,50.57
2022-11-23T16:28:40.593Z,46.47
2022-11-23T16:31:31.209Z,51.27
2022-11-23T16:34:00.163Z,49.90
2022-11-23T16:36:29.231Z,45.27
2022-11-23T16:39:03.939Z,53.30
2022-11-23T16:41:35.569Z,57.93
2022-11-23T16:44:04.752Z,59.20
2022-11-23T16:46:35.945Z,59.57
2022-11-23T16:49:18.383Z,59.87
2022-11-23T16:51:56.244Z,55.80
2022-11-23T16:54:25.885Z,58.80
2022-11-23T16:56:55.954Z,61.57
2022-11-23T16:59:25.944Z,58.50
2022-11-23T17:01:57.579Z,61.37
2022-11-23T17:04:27.370Z,60.63
2022-11-23T17:06:58.224Z,55.23
2022-11-23T17:09:27.101Z,58.00
2022-11-23T17:11:57.189Z,54.97
2022-11-23T17:14:29.580Z,58.77
2022-11-23T17:17:02.261Z,57.43
2022-11-23T17:19:31.967Z,54.80
2022-11-23T17:22:00.942Z,62.40
2022-11-23T17:24:30.090Z,64.23
2022-11-23T17:27:00.739Z,63.37
2022-11-23T17:29:33.993Z,64.70
2022-11-23T17:32:10.568Z,68.53
2022-11-23T17:34:39.680Z,58.50
2022-11-23T17:37:17.824Z,57.80
2022-11-23T17:39:47.551Z,59.80
2022-11-23T17:42:18.182Z,52.53
2022-11-23T17:44:47.791Z,51.20
2022-11-23T17:47:23.940Z,56.87
2022-11-23T17:49:53.023Z,62.50
2022-11-23T17:52:21.836Z,54.40
2022-11-23T17:54:50.811Z,56.07
2022-11-23T17:57:25.978Z,55.53
2022-11-23T17:59:59.272Z,52.57
2022-11-23T18:02:40.434Z,59.23
2022-11-23T18:05:11.695Z,53.23
2022-11-23T18:07:42.449Z,51.77
2022-11-23T18:10:14.111Z,54.50
2022-11-23T18:12:44.953Z,53.50
2022-11-23T18:15:14.766Z,54.83
2022-11-23T18:17:43.980Z,58.90
2022-11-23T18:20:13.666Z,59.53
2022-11-23T18:22:42.338Z,56.87
2022-11-23T18:25:11.600Z,55.60
2022-11-23T18:27:40.250Z,52.40
2022-11-23T18:30:11.875Z,54.40
2022-11-23T18:32:40.622Z,47.50
2022-11-23T18:35:10.880Z,50.70
2022-11-23T18:37:39.608Z,44.33
2022-11-23T18:40:10.029Z,48.73
2022-11-23T18:42:38.765Z,48.80
2022-11-23T18:45:10.240Z,48.57
2022-11-23T18:47:38.812Z,52.13
2022-11-23T18:50:09.342Z,49.70
2022-11-23T18:52:38.000Z,53.53
2022-11-23T18:55:08.449Z,52.60
2022-11-23T18:57:37.766Z,50.43
2022-11-23T19:00:08.372Z,52.23
2022-11-23T19:02:39.382Z,49.17
2022-11-23T19:05:09.382Z,48.17
2022-11-23T19:07:38.050Z,47.97
2022-11-23T19:10:07.981Z,47.43
2022-11-23T19:12:36.688Z,51.97
2022-11-23T19:15:07.837Z,51.27
2022-11-23T19:17:38.374Z,49.47
2022-11-23T19:20:09.931Z,51.43
2022-11-23T19:22:38.625Z,58.47
2022-11-23T19:25:09.079Z,54.80
2022-11-23T19:27:38.377Z,50.47
2022-11-23T19:30:09.752Z,46.97
2022-11-23T19:32:39.795Z,54.23
2022-11-23T19:35:09.223Z,50.00
2022-11-23T19:37:38.828Z,55.10
2022-11-23T19:40:10.875Z,54.77
2022-11-23T19:42:39.494Z,54.43
2022-11-23T19:45:09.722Z,55.57
2022-11-23T19:47:39.717Z,52.30
2022-11-23T19:50:10.063Z,46.83
2022-11-23T19:53:09.985Z,49.07
2022-11-23T19:55:27.784Z,48.83
2022-11-23T19:57:56.395Z,48.80
2022-11-23T20:00:25.293Z,59.17
2022-11-23T20:02:59.353Z,53.57
2022-11-23T20:05:28.521Z,55.77
2022-11-23T20:07:57.232Z,50.77
2022-11-23T20:10:26.280Z,59.07
2022-11-23T20:12:54.869Z,58.70
2022-11-23T20:15:24.088Z,57.00
2022-11-23T20:17:54.240Z,55.90
2022-11-23T20:20:23.217Z,55.67
2022-11-23T20:22:51.854Z,59.20
2022-11-23T20:25:21.369Z,55.17
2022-11-23T20:27:49.993Z,55.93
2022-11-23T20:30:19.150Z,62.33
2022-11-23T20:32:51.738Z,54.03
2022-11-23T20:35:22.942Z,50.20
2022-11-23T20:37:51.615Z,55.20
2022-11-23T20:40:20.778Z,59.70
2022-11-23T20:42:49.516Z,55.47
2022-11-23T20:45:18.694Z,58.10
2022-11-23T20:47:48.274Z,60.73
2022-11-23T20:50:17.647Z,56.93
2022-11-23T20:52:47.587Z,58.80
2022-11-23T20:55:23.211Z,59.20
2022-11-23T20:57:53.037Z,60.53
2022-11-23T21:00:24.053Z,55.07
2022-11-23T21:02:54.272Z,61.10
2022-11-23T21:05:23.594Z,55.10
2022-11-23T21:07:53.736Z,58.40
2022-11-23T21:10:40.270Z,56.03
2022-11-23T21:13:48.490Z,56.53
2022-11-23T21:16:18.384Z,55.33
2022-11-23T21:18:47.075Z,54.27
2022-11-23T21:21:16.007Z,56.73
2022-11-23T21:23:49.492Z,55.50
2022-11-23T21:26:21.216Z,54.20
2022-11-23T21:28:49.840Z,59.87
2022-11-23T21:31:18.895Z,50.60
2022-11-23T21:33:53.807Z,54.37
2022-11-23T21:36:23.403Z,52.43
2022-11-23T21:38:53.344Z,51.07
2022-11-23T21:41:22.213Z,50.63
2022-11-23T21:43:55.493Z,49.77
2022-11-23T21:46:24.857Z,50.87
2022-11-23T21:48:56.075Z,53.77
2022-11-23T21:51:28.529Z,53.53
2022-11-23T21:54:01.673Z,53.17
2022-11-23T21:56:31.250Z,51.83
2022-11-23T21:59:00.673Z,52.87
2022-11-23T22:01:32.536Z,51.47
2022-11-23T22:04:04.790Z,54.60
2022-11-23T22:06:34.085Z,52.70
2022-11-23T22:09:06.536Z,52.53
2022-11-23T22:11:38.474Z,48.93
2022-11-23T22:14:09.830Z,52.13
2022-11-23T22:16:41.362Z,51.97
2022-11-23T22:19:12.900Z,57.13
2022-11-23T22:21:44.322Z,56.50
2022-11-23T22:24:16.984Z,48.93
2022-11-23T22:26:47.864Z,57.90
2022-11-23T22:29:17.545Z,54.60
2022-11-23T22:31:46.622Z,48.53
2022-11-23T22:34:16.113Z,50.97
2022-11-23T22:36:45.290Z,50.60
2022-11-23T22:39:15.367Z,48.33
2022-11-23T22:41:44.426Z,44.37
2022-11-23T22:44:13.314Z,47.23
2022-11-23T22:46:42.297Z,48.33
2022-11-23T22:49:11.075Z,49.57
2022-11-23T22:51:40.043Z,45.53
2022-11-23T22:54:09.713Z,47.83
2022-11-23T22:56:40.161Z,48.43
2022-11-23T22:59:08.888Z,46.07
2022-11-23T23:01:37.822Z,51.40
2022-11-23T23:04:06.688Z,43.03
2022-11-23T23:06:36.091Z,50.17
2022-11-23T23:09:09.333Z,48.27
2022-11-23T23:11:40.125Z,46.30
2022-11-23T23:14:09.051Z,44.80
2022-11-23T23:16:38.154Z,43.40
2022-11-23T23:19:07.297Z,44.20
2022-11-23T23:21:36.236Z,44.07
2022-11-23T23:24:05.863Z,43.30
2022-11-23T23:26:34.818Z,44.53
2022-11-23T23:29:05.166Z,39.67
2022-11-23T23:31:34.727Z,42.90
2022-11-23T23:34:03.511Z,41.23
2022-11-23T23:36:32.486Z,42.53
2022-11-23T23:39:05.105Z,40.90
2022-11-23T23:41:34.094Z,43.50
2022-11-23T23:44:04.114Z,42.00
2022-11-23T23:46:33.137Z,42.80
2022-11-23T23:49:02.095Z,39.23
2022-11-23T23:51:31.090Z,39.00
2022-11-23T23:53:59.990Z,38.90
2022-11-23T23:56:30.778Z,38.43
2022-11-23T23:59:00.356Z,38.73
